Montgomery, NY

9:29 AM EDT en Octubre 31, 2014 (GMT -0400)
Buffer Zone (Berea) | Change Station
CLOSE
Current Station
Estación meteorológica personal
Location: Montgomery, NY
Altura: 427 ft
Estaciones meteorológicas cercanas

Alt 427 ft 41.52 °N, 74.18 °W | Updated 27 seconds ago

Clear
Despejado
34.0 ° F
Sensación térmica 34 ° F
N
0.0
Viento Variable Viento desde ENE
Gusts 0.0 mph

Hoy
Alta -- | Baja -- ° F
--% Posibilidad de precipitaciones
Ayer
Alta -- | Baja -- ° F
Precip. -- pul
7:27 AM 5:53 PM
Cuarto creciente, 55% visible
Presión 30.05 pul
Visibilidad 10.0 Millas
Nubes Despejado
Vientos helados 34 ° F
Punto de rocío 34 ° F
Humedad 99%
Precipitaciones 0.00 pul
Espesor de la nieve No disponible.
UV 1 de una escala de 12
Polen .50 de una escala de 12
Calidad del aire No disponible.
Flu Activity No disponible.
METAR KMGJ 311254Z AUTO 00000KT 10SM CLR 00/M01 A3004 RMK AO2 SLP175 T00001011 TSNO

More Conditions Fewer Conditions

Presión 30.05 pul
Visibilidad 10.0 Millas
Nubes Despejado
Vientos helados 34 ° F
Punto de rocío 34 ° F
Humedad 99%
Precipitaciones 0.00 pul
Espesor de la nieve No disponible.
UV 1 de una escala de 12
Polen .50 de una escala de 12
Calidad del aire No disponible.
Flu Activity No disponible.
METAR KMGJ 311254Z AUTO 00000KT 10SM CLR 00/M01 A3004 RMK AO2 SLP175 T00001011 TSNO

More Conditions Fewer Conditions

10-Day Weather Forecast

Almanac

Astronomía

Oct. 31, 2014 Salida Puesta
Hora real
Crepúsculo civil
Crepúsculo náutico
Crepúsculo astronómico
Luna
Horas de luz
Horas de luz
Tomorrow will be .
, % of the Moon is Illuminated

Extremos de hoy

Máximos del estado Bajos del estado

Community

WunderPhotos

Upload Photos

1,766,608 ¡fotos cargadas!

WunderBlogs® & News

Nearby

Calidad del aire

  Calidad del aire Índice AQ Contaminante
Not available.

Grosos de nieve

Estación Profundido Altura

Actividad de terremotos

Ciudad Distance Mag. Tiempo y dato
Magnitud mínima muestra es 2,5.

Temperaturas de aguas costeras

Lugar Temperatura

Estaciones meteorológicas cercanas